This is the latest recevied weather packets stored in our database for station/object VK6DUG. If no packets are shown the sender has not sent any weather packets the latest 1 day(s).
| Time | Temp. | Humidity | Pressure | Rain* | Wind** | Luminosity | Snow |
|---|---|---|---|---|---|---|---|
| 1778088016 | 13.89° C | 71% | 1033 hPa | 0 mm | - | 0 W/m² | - |
| 1778087433 | 13.89° C | 70% | 1033.1 hPa | 0 mm | - | 0 W/m² | - |
| 1778085622 | 13.89° C | 71% | 1033.2 hPa | 0 mm | - | 0 W/m² | - |
| 1778083834 | 13.89° C | 71% | 1033.4 hPa | 0 mm | - | 0 W/m² | - |
| 1778082628 | 13.33° C | 72% | 1033.2 hPa | 0 mm | - | 0 W/m² | - |
| 1778080818 | 13.33° C | 72% | 1033.3 hPa | 0 mm | - | 0 W/m² | - |
| 1778080234 | 12.78° C | 74% | 1033.2 hPa | 0 mm | - | 0 W/m² | - |
| 1778079025 | 13.33° C | 75% | 1033.2 hPa | 0 mm | - | 0 W/m² | - |
| 1778078419 | 12.78° C | 76% | 1033.4 hPa | 0 mm | - | 0 W/m² | - |
| 1778077833 | 12.78° C | 75% | 1033.2 hPa | 0 mm | - | 0 W/m² | - |
| 1778076624 | 13.33° C | 74% | 1033.3 hPa | 0 mm | - | 0 W/m² | - |
| 1778072418 | 12.78° C | 80% | 1032.8 hPa | 0 mm | - | 0 W/m² | - |
| 1778070020 | 13.33° C | 78% | 1032.7 hPa | 0 mm | - | 0 W/m² | - |
| 1778069417 | 13.89° C | 77% | 1032.6 hPa | 0 mm | - | 0 W/m² | - |
| 1778068832 | 13.89° C | 77% | 1032.4 hPa | 0 mm | - | 0 W/m² | - |
| 1778067626 | 13.89° C | 76% | 1032.3 hPa | 0 mm | - | 0 W/m² | - |
| 1778067024 | 14.44° C | 75% | 1032.2 hPa | 0 mm | - | 0 W/m² | - |
| 1778063425 | 16.11° C | 69% | 1031.9 hPa | 0 mm | - | 0 W/m² | - |
| 1778062217 | 17.22° C | 65% | 1031.7 hPa | 0 mm | - | 0 W/m² | - |
| 1778061634 | 17.78° C | 62% | 1031.6 hPa | 0 mm | - | 0 W/m² | - |
| 1778059825 | 19.44° C | 58% | 1031.4 hPa | 0 mm | - | 8 W/m² | - |
| 1778059222 | 20° C | 56% | 1031.3 hPa | 0 mm | - | 14 W/m² | - |
| 1778058035 | 20.56° C | 53% | 1031.2 hPa | 0 mm | - | 26 W/m² | - |
| 1778056828 | 21.67° C | 52% | 1031.1 hPa | 0 mm | - | 50 W/m² | - |
| 1778055622 | 21.67° C | 51% | 1031 hPa | 0 mm | - | 102 W/m² | - |
* Rain latest hour (hover to see other rain measurements)
** Current wind speed in m/s (hover to see current wind gust speed)